Terminal Aerodrome Forecast
Issued by NWS Anchorage, AK

Home | Current Version | Previous Version | Text Only | Print | Product List | Glossary On
Versions: 1 2 3 4 5 6 7 8 9 10 11 12 13 14 15 16 17 18 19 20 21 22 23 24 25 26 27 28 29 30 31 32 33 34 35 36 37 38 39 40 41 42 43 44 45 46 47 48 49 50
000
FTAK31 PANC 032344
TAFANC
TAF
PANC 032344Z 0400/0506 15015G25KT P6SM VCSH BKN060 WS015/12040KT
     FM040600 16012KT P6SM -SHRA BKN060
     FM040900 VRB03KT P6SM -SHRA SCT025 BKN050 WS020/11030KT
     FM042100 14015G25KT P6SM -SHRA BKN060 WS015/14040KT=

USA.gov is the U.S. government's official web portal to all federal, state and local government web resources and services.